sensor_id;sensor_type;location;lat;lon;timestamp;P1;durP1;ratioP1;P2;durP2;ratioP2
4355;SDS011;64374;51.482;7.408;2022-10-16T00:00:22;8.03;;;2.80;;
4355;SDS011;64374;51.482;7.408;2022-10-16T00:02:50;2.60;;;2.13;;
4355;SDS011;64374;51.482;7.408;2022-10-16T00:05:20;4.80;;;2.40;;
4355;SDS011;64374;51.482;7.408;2022-10-16T00:07:49;3.60;;;2.53;;
4355;SDS011;64374;51.482;7.408;2022-10-16T00:10:23;3.90;;;2.30;;
4355;SDS011;64374;51.482;7.408;2022-10-16T00:12:52;2.60;;;2.10;;
4355;SDS011;64374;51.482;7.408;2022-10-16T00:15:22;2.50;;;1.53;;
4355;SDS011;64374;51.482;7.408;2022-10-16T00:17:52;3.67;;;2.50;;
4355;SDS011;64374;51.482;7.408;2022-10-16T00:20:24;2.43;;;1.73;;
4355;SDS011;64374;51.482;7.408;2022-10-16T00:23:18;5.90;;;2.60;;
4355;SDS011;64374;51.482;7.408;2022-10-16T00:26:00;2.50;;;2.13;;
4355;SDS011;64374;51.482;7.408;2022-10-16T00:28:29;3.63;;;2.10;;
4355;SDS011;64374;51.482;7.408;2022-10-16T00:31:01;4.20;;;2.00;;
4355;SDS011;64374;51.482;7.408;2022-10-16T00:33:31;4.87;;;2.03;;
4355;SDS011;64374;51.482;7.408;2022-10-16T00:36:00;3.40;;;2.17;;
4355;SDS011;64374;51.482;7.408;2022-10-16T00:38:28;2.70;;;2.03;;
4355;SDS011;64374;51.482;7.408;2022-10-16T00:40:58;6.40;;;2.50;;
4355;SDS011;64374;51.482;7.408;2022-10-16T00:46:19;2.80;;;1.73;;
4355;SDS011;64374;51.482;7.408;2022-10-16T00:49:03;4.87;;;2.37;;
4355;SDS011;64374;51.482;7.408;2022-10-16T00:51:34;3.53;;;1.93;;
4355;SDS011;64374;51.482;7.408;2022-10-16T00:54:06;4.13;;;1.97;;
4355;SDS011;64374;51.482;7.408;2022-10-16T00:56:38;4.73;;;1.83;;
4355;SDS011;64374;51.482;7.408;2022-10-16T00:59:07;7.03;;;1.80;;
4355;SDS011;64374;51.482;7.408;2022-10-16T01:01:51;7.70;;;2.30;;
4355;SDS011;64374;51.482;7.408;2022-10-16T01:04:20;9.10;;;1.93;;
4355;SDS011;64374;51.482;7.408;2022-10-16T01:06:51;5.87;;;1.50;;
4355;SDS011;64374;51.482;7.408;2022-10-16T01:09:34;3.30;;;1.90;;
4355;SDS011;64374;51.482;7.408;2022-10-16T01:12:09;3.13;;;1.93;;
4355;SDS011;64374;51.482;7.408;2022-10-16T01:14:42;2.70;;;1.90;;
4355;SDS011;64374;51.482;7.408;2022-10-16T01:17:18;2.80;;;1.63;;
4355;SDS011;64374;51.482;7.408;2022-10-16T01:19:56;1.93;;;1.70;;
4355;SDS011;64374;51.482;7.408;2022-10-16T01:22:33;8.87;;;2.23;;
4355;SDS011;64374;51.482;7.408;2022-10-16T01:25:12;2.37;;;1.70;;
4355;SDS011;64374;51.482;7.408;2022-10-16T01:27:54;1.43;;;1.33;;
4355;SDS011;64374;51.482;7.408;2022-10-16T01:30:25;2.23;;;1.83;;
4355;SDS011;64374;51.482;7.408;2022-10-16T01:32:58;3.47;;;2.13;;
4355;SDS011;64374;51.482;7.408;2022-10-16T01:35:34;2.23;;;1.43;;
4355;SDS011;64374;51.482;7.408;2022-10-16T01:38:21;2.70;;;1.60;;
4355;SDS011;64374;51.482;7.408;2022-10-16T01:40:56;4.13;;;2.00;;
4355;SDS011;64374;51.482;7.408;2022-10-16T01:43:31;2.70;;;1.47;;
4355;SDS011;64374;51.482;7.408;2022-10-16T01:46:04;2.17;;;1.40;;
4355;SDS011;64374;51.482;7.408;2022-10-16T01:48:34;2.37;;;1.63;;
4355;SDS011;64374;51.482;7.408;2022-10-16T01:51:08;3.47;;;1.50;;
4355;SDS011;64374;51.482;7.408;2022-10-16T01:53:40;3.43;;;1.83;;
4355;SDS011;64374;51.482;7.408;2022-10-16T01:56:13;3.40;;;1.90;;
4355;SDS011;64374;51.482;7.408;2022-10-16T01:58:46;2.83;;;1.60;;
4355;SDS011;64374;51.482;7.408;2022-10-16T02:01:17;3.40;;;1.73;;
4355;SDS011;64374;51.482;7.408;2022-10-16T02:03:55;11.23;;;1.60;;
4355;SDS011;64374;51.482;7.408;2022-10-16T02:06:29;5.47;;;1.93;;
4355;SDS011;64374;51.482;7.408;2022-10-16T02:08:57;3.47;;;1.70;;
4355;SDS011;64374;51.482;7.408;2022-10-16T02:11:27;3.93;;;1.47;;
4355;SDS011;64374;51.482;7.408;2022-10-16T02:13:57;2.40;;;1.83;;
4355;SDS011;64374;51.482;7.408;2022-10-16T02:16:33;1.53;;;1.43;;
4355;SDS011;64374;51.482;7.408;2022-10-16T02:19:03;1.83;;;1.60;;
4355;SDS011;64374;51.482;7.408;2022-10-16T02:21:36;2.93;;;1.53;;
4355;SDS011;64374;51.482;7.408;2022-10-16T02:24:13;4.13;;;1.63;;
4355;SDS011;64374;51.482;7.408;2022-10-16T02:26:48;2.07;;;1.60;;
4355;SDS011;64374;51.482;7.408;2022-10-16T02:29:22;1.50;;;1.40;;
4355;SDS011;64374;51.482;7.408;2022-10-16T02:31:54;4.37;;;1.67;;
4355;SDS011;64374;51.482;7.408;2022-10-16T02:34:25;3.33;;;1.30;;
4355;SDS011;64374;51.482;7.408;2022-10-16T02:36:55;2.60;;;1.77;;
4355;SDS011;64374;51.482;7.408;2022-10-16T02:39:28;3.03;;;1.30;;
4355;SDS011;64374;51.482;7.408;2022-10-16T02:41:59;2.00;;;1.37;;
4355;SDS011;64374;51.482;7.408;2022-10-16T02:44:32;3.23;;;1.40;;
4355;SDS011;64374;51.482;7.408;2022-10-16T02:47:03;4.20;;;1.73;;
4355;SDS011;64374;51.482;7.408;2022-10-16T02:49:40;1.63;;;1.50;;
4355;SDS011;64374;51.482;7.408;2022-10-16T02:52:08;2.60;;;1.40;;
4355;SDS011;64374;51.482;7.408;2022-10-16T02:54:36;3.03;;;1.23;;
4355;SDS011;64374;51.482;7.408;2022-10-16T02:57:07;1.67;;;1.43;;
4355;SDS011;64374;51.482;7.408;2022-10-16T02:59:39;3.60;;;1.60;;
4355;SDS011;64374;51.482;7.408;2022-10-16T03:02:08;2.20;;;1.20;;
4355;SDS011;64374;51.482;7.408;2022-10-16T03:04:39;2.53;;;1.33;;
4355;SDS011;64374;51.482;7.408;2022-10-16T03:07:07;5.03;;;1.77;;
4355;SDS011;64374;51.482;7.408;2022-10-16T03:09:38;1.43;;;1.33;;
4355;SDS011;64374;51.482;7.408;2022-10-16T03:12:09;2.23;;;1.00;;
4355;SDS011;64374;51.482;7.408;2022-10-16T03:14:40;2.57;;;1.60;;
4355;SDS011;64374;51.482;7.408;2022-10-16T03:17:13;6.30;;;1.40;;
4355;SDS011;64374;51.482;7.408;2022-10-16T03:19:43;1.50;;;1.33;;
4355;SDS011;64374;51.482;7.408;2022-10-16T03:22:14;2.30;;;1.40;;
4355;SDS011;64374;51.482;7.408;2022-10-16T03:24:42;2.70;;;1.30;;
4355;SDS011;64374;51.482;7.408;2022-10-16T03:27:17;1.53;;;1.13;;
4355;SDS011;64374;51.482;7.408;2022-10-16T03:29:47;2.30;;;1.40;;
4355;SDS011;64374;51.482;7.408;2022-10-16T03:32:15;2.90;;;1.30;;
4355;SDS011;64374;51.482;7.408;2022-10-16T03:34:45;7.10;;;1.33;;
4355;SDS011;64374;51.482;7.408;2022-10-16T03:37:13;1.67;;;1.03;;
4355;SDS011;64374;51.482;7.408;2022-10-16T03:39:44;3.37;;;1.60;;
4355;SDS011;64374;51.482;7.408;2022-10-16T03:42:12;1.23;;;1.10;;
4355;SDS011;64374;51.482;7.408;2022-10-16T03:44:43;1.87;;;1.33;;
4355;SDS011;64374;51.482;7.408;2022-10-16T03:47:15;3.93;;;2.00;;
4355;SDS011;64374;51.482;7.408;2022-10-16T03:49:55;1.60;;;0.90;;
4355;SDS011;64374;51.482;7.408;2022-10-16T03:52:32;1.30;;;1.20;;
4355;SDS011;64374;51.482;7.408;2022-10-16T03:55:00;1.43;;;1.30;;
4355;SDS011;64374;51.482;7.408;2022-10-16T03:57:29;5.50;;;1.30;;
4355;SDS011;64374;51.482;7.408;2022-10-16T03:59:58;1.20;;;1.07;;
4355;SDS011;64374;51.482;7.408;2022-10-16T04:02:38;12.60;;;1.83;;
4355;SDS011;64374;51.482;7.408;2022-10-16T04:05:08;2.80;;;1.37;;
4355;SDS011;64374;51.482;7.408;2022-10-16T04:07:36;1.27;;;1.17;;
4355;SDS011;64374;51.482;7.408;2022-10-16T04:10:05;1.37;;;1.17;;
4355;SDS011;64374;51.482;7.408;2022-10-16T04:12:34;2.20;;;1.70;;
4355;SDS011;64374;51.482;7.408;2022-10-16T04:15:02;3.00;;;1.07;;
4355;SDS011;64374;51.482;7.408;2022-10-16T04:17:33;1.27;;;1.17;;
4355;SDS011;64374;51.482;7.408;2022-10-16T04:20:06;1.17;;;1.07;;
4355;SDS011;64374;51.482;7.408;2022-10-16T04:22:37;2.57;;;1.10;;
4355;SDS011;64374;51.482;7.408;2022-10-16T04:25:05;1.20;;;1.10;;
4355;SDS011;64374;51.482;7.408;2022-10-16T04:27:34;1.13;;;1.00;;
4355;SDS011;64374;51.482;7.408;2022-10-16T04:30:07;3.73;;;1.33;;
4355;SDS011;64374;51.482;7.408;2022-10-16T04:32:39;1.20;;;1.00;;
4355;SDS011;64374;51.482;7.408;2022-10-16T04:35:11;1.30;;;1.20;;
4355;SDS011;64374;51.482;7.408;2022-10-16T04:37:40;1.20;;;1.10;;
4355;SDS011;64374;51.482;7.408;2022-10-16T04:40:10;1.60;;;1.10;;
4355;SDS011;64374;51.482;7.408;2022-10-16T04:42:38;2.07;;;1.30;;
4355;SDS011;64374;51.482;7.408;2022-10-16T04:45:07;6.50;;;1.30;;
4355;SDS011;64374;51.482;7.408;2022-10-16T04:47:41;1.97;;;1.10;;
4355;SDS011;64374;51.482;7.408;2022-10-16T04:50:09;1.30;;;1.10;;
4355;SDS011;64374;51.482;7.408;2022-10-16T04:52:42;2.80;;;1.23;;
4355;SDS011;64374;51.482;7.408;2022-10-16T04:55:15;2.53;;;1.40;;
4355;SDS011;64374;51.482;7.408;2022-10-16T04:57:43;4.10;;;1.13;;
4355;SDS011;64374;51.482;7.408;2022-10-16T05:00:12;10.33;;;1.67;;
4355;SDS011;64374;51.482;7.408;2022-10-16T05:02:43;4.20;;;1.23;;
4355;SDS011;64374;51.482;7.408;2022-10-16T05:05:18;4.23;;;1.30;;
4355;SDS011;64374;51.482;7.408;2022-10-16T05:07:46;2.60;;;1.30;;
4355;SDS011;64374;51.482;7.408;2022-10-16T05:10:15;1.40;;;1.03;;
4355;SDS011;64374;51.482;7.408;2022-10-16T05:12:51;2.20;;;1.00;;
4355;SDS011;64374;51.482;7.408;2022-10-16T05:15:19;2.10;;;1.00;;
4355;SDS011;64374;51.482;7.408;2022-10-16T05:17:52;2.33;;;1.00;;
4355;SDS011;64374;51.482;7.408;2022-10-16T05:20:25;2.17;;;1.20;;
4355;SDS011;64374;51.482;7.408;2022-10-16T05:22:54;0.77;;;0.70;;
4355;SDS011;64374;51.482;7.408;2022-10-16T05:25:22;2.43;;;1.20;;
4355;SDS011;64374;51.482;7.408;2022-10-16T05:27:55;3.67;;;1.00;;
4355;SDS011;64374;51.482;7.408;2022-10-16T05:30:24;1.90;;;1.03;;
4355;SDS011;64374;51.482;7.408;2022-10-16T05:32:52;1.13;;;1.00;;
4355;SDS011;64374;51.482;7.408;2022-10-16T05:35:25;1.00;;;0.90;;
4355;SDS011;64374;51.482;7.408;2022-10-16T05:37:54;1.67;;;1.10;;
4355;SDS011;64374;51.482;7.408;2022-10-16T05:40:22;9.70;;;1.80;;
4355;SDS011;64374;51.482;7.408;2022-10-16T05:42:54;3.67;;;1.93;;
4355;SDS011;64374;51.482;7.408;2022-10-16T05:45:22;4.30;;;1.87;;
4355;SDS011;64374;51.482;7.408;2022-10-16T05:47:51;2.00;;;1.63;;
4355;SDS011;64374;51.482;7.408;2022-10-16T05:50:19;1.40;;;1.30;;
4355;SDS011;64374;51.482;7.408;2022-10-16T05:52:49;3.93;;;1.43;;
4355;SDS011;64374;51.482;7.408;2022-10-16T05:55:18;3.27;;;1.20;;
4355;SDS011;64374;51.482;7.408;2022-10-16T05:57:49;1.20;;;1.10;;
4355;SDS011;64374;51.482;7.408;2022-10-16T06:00:17;1.30;;;1.13;;
4355;SDS011;64374;51.482;7.408;2022-10-16T06:02:46;3.00;;;1.20;;
4355;SDS011;64374;51.482;7.408;2022-10-16T06:05:14;1.33;;;1.23;;
4355;SDS011;64374;51.482;7.408;2022-10-16T06:07:51;1.37;;;1.27;;
4355;SDS011;64374;51.482;7.408;2022-10-16T06:10:20;1.90;;;1.20;;
4355;SDS011;64374;51.482;7.408;2022-10-16T06:12:48;2.50;;;2.13;;
4355;SDS011;64374;51.482;7.408;2022-10-16T06:15:16;2.40;;;1.43;;
4355;SDS011;64374;51.482;7.408;2022-10-16T06:17:45;4.40;;;1.70;;
4355;SDS011;64374;51.482;7.408;2022-10-16T06:20:13;1.67;;;1.40;;
4355;SDS011;64374;51.482;7.408;2022-10-16T06:22:44;1.63;;;1.53;;
4355;SDS011;64374;51.482;7.408;2022-10-16T06:25:16;1.80;;;1.57;;
4355;SDS011;64374;51.482;7.408;2022-10-16T06:27:44;1.50;;;1.40;;
4355;SDS011;64374;51.482;7.408;2022-10-16T06:30:17;4.07;;;1.10;;
4355;SDS011;64374;51.482;7.408;2022-10-16T06:32:48;3.50;;;1.33;;
4355;SDS011;64374;51.482;7.408;2022-10-16T06:35:16;1.27;;;1.17;;
4355;SDS011;64374;51.482;7.408;2022-10-16T06:37:44;4.93;;;1.10;;
4355;SDS011;64374;51.482;7.408;2022-10-16T06:40:13;4.70;;;2.50;;
4355;SDS011;64374;51.482;7.408;2022-10-16T06:42:45;3.17;;;2.00;;
4355;SDS011;64374;51.482;7.408;2022-10-16T06:45:14;1.90;;;1.40;;
4355;SDS011;64374;51.482;7.408;2022-10-16T06:47:52;2.33;;;1.50;;
4355;SDS011;64374;51.482;7.408;2022-10-16T06:50:20;3.13;;;2.20;;
4355;SDS011;64374;51.482;7.408;2022-10-16T06:52:48;3.73;;;1.80;;
4355;SDS011;64374;51.482;7.408;2022-10-16T06:55:17;1.97;;;1.50;;
4355;SDS011;64374;51.482;7.408;2022-10-16T06:57:47;5.40;;;1.80;;
4355;SDS011;64374;51.482;7.408;2022-10-16T07:00:16;2.10;;;1.40;;
4355;SDS011;64374;51.482;7.408;2022-10-16T07:02:44;3.67;;;1.37;;
4355;SDS011;64374;51.482;7.408;2022-10-16T07:05:15;1.70;;;1.30;;
4355;SDS011;64374;51.482;7.408;2022-10-16T07:07:51;3.30;;;1.30;;
4355;SDS011;64374;51.482;7.408;2022-10-16T07:10:20;2.30;;;1.30;;
4355;SDS011;64374;51.482;7.408;2022-10-16T07:12:54;3.07;;;1.43;;
4355;SDS011;64374;51.482;7.408;2022-10-16T07:15:25;1.90;;;1.63;;
4355;SDS011;64374;51.482;7.408;2022-10-16T07:17:54;4.87;;;2.20;;
4355;SDS011;64374;51.482;7.408;2022-10-16T07:20:22;2.40;;;1.37;;
4355;SDS011;64374;51.482;7.408;2022-10-16T07:22:51;1.63;;;1.53;;
4355;SDS011;64374;51.482;7.408;2022-10-16T07:25:19;1.37;;;1.27;;
4355;SDS011;64374;51.482;7.408;2022-10-16T07:27:47;3.00;;;1.20;;
4355;SDS011;64374;51.482;7.408;2022-10-16T07:30:19;2.83;;;1.30;;
4355;SDS011;64374;51.482;7.408;2022-10-16T07:32:50;1.30;;;1.20;;
4355;SDS011;64374;51.482;7.408;2022-10-16T07:35:19;3.83;;;1.30;;
4355;SDS011;64374;51.482;7.408;2022-10-16T07:37:48;2.80;;;1.40;;
4355;SDS011;64374;51.482;7.408;2022-10-16T07:40:18;2.90;;;1.50;;
4355;SDS011;64374;51.482;7.408;2022-10-16T07:42:50;2.13;;;1.50;;
4355;SDS011;64374;51.482;7.408;2022-10-16T07:45:19;2.50;;;1.37;;
4355;SDS011;64374;51.482;7.408;2022-10-16T07:47:48;1.80;;;1.60;;
4355;SDS011;64374;51.482;7.408;2022-10-16T07:50:16;1.70;;;1.27;;
4355;SDS011;64374;51.482;7.408;2022-10-16T07:52:48;2.50;;;1.00;;
4355;SDS011;64374;51.482;7.408;2022-10-16T07:55:16;1.40;;;1.30;;
4355;SDS011;64374;51.482;7.408;2022-10-16T07:57:44;1.50;;;1.40;;
4355;SDS011;64374;51.482;7.408;2022-10-16T08:00:13;3.90;;;1.33;;
4355;SDS011;64374;51.482;7.408;2022-10-16T08:02:45;1.30;;;1.20;;
4355;SDS011;64374;51.482;7.408;2022-10-16T08:05:14;2.00;;;1.33;;
4355;SDS011;64374;51.482;7.408;2022-10-16T08:07:47;3.90;;;1.40;;
4355;SDS011;64374;51.482;7.408;2022-10-16T08:10:19;3.47;;;1.20;;
4355;SDS011;64374;51.482;7.408;2022-10-16T08:12:51;1.23;;;1.23;;
4355;SDS011;64374;51.482;7.408;2022-10-16T08:15:20;5.67;;;2.07;;
4355;SDS011;64374;51.482;7.408;2022-10-16T08:20:34;1.80;;;1.20;;
4355;SDS011;64374;51.482;7.408;2022-10-16T08:23:02;1.63;;;1.33;;
4355;SDS011;64374;51.482;7.408;2022-10-16T08:25:30;2.90;;;1.70;;
4355;SDS011;64374;51.482;7.408;2022-10-16T08:28:02;2.93;;;1.40;;
4355;SDS011;64374;51.482;7.408;2022-10-16T08:30:36;4.00;;;1.90;;
4355;SDS011;64374;51.482;7.408;2022-10-16T08:33:08;4.00;;;1.70;;
4355;SDS011;64374;51.482;7.408;2022-10-16T08:35:37;9.60;;;1.80;;
4355;SDS011;64374;51.482;7.408;2022-10-16T08:38:08;6.73;;;1.83;;
4355;SDS011;64374;51.482;7.408;2022-10-16T08:40:37;1.47;;;1.37;;
4355;SDS011;64374;51.482;7.408;2022-10-16T08:43:12;2.00;;;1.53;;
4355;SDS011;64374;51.482;7.408;2022-10-16T08:46:10;2.97;;;1.50;;
4355;SDS011;64374;51.482;7.408;2022-10-16T08:48:54;6.43;;;1.90;;
4355;SDS011;64374;51.482;7.408;2022-10-16T08:51:26;2.63;;;1.60;;
4355;SDS011;64374;51.482;7.408;2022-10-16T08:54:15;3.27;;;1.90;;
4355;SDS011;64374;51.482;7.408;2022-10-16T08:56:56;3.63;;;1.63;;
4355;SDS011;64374;51.482;7.408;2022-10-16T08:59:28;3.40;;;1.73;;
4355;SDS011;64374;51.482;7.408;2022-10-16T09:01:59;2.60;;;1.20;;
4355;SDS011;64374;51.482;7.408;2022-10-16T09:07:25;1.67;;;1.30;;
4355;SDS011;64374;51.482;7.408;2022-10-16T09:10:05;2.10;;;1.10;;
4355;SDS011;64374;51.482;7.408;2022-10-16T09:13:01;1.77;;;1.40;;
4355;SDS011;64374;51.482;7.408;2022-10-16T09:15:39;2.90;;;1.00;;
4355;SDS011;64374;51.482;7.408;2022-10-16T09:18:15;3.00;;;1.33;;
4355;SDS011;64374;51.482;7.408;2022-10-16T09:21:00;5.47;;;0.80;;
4355;SDS011;64374;51.482;7.408;2022-10-16T09:23:35;3.30;;;1.10;;
4355;SDS011;64374;51.482;7.408;2022-10-16T09:26:05;4.90;;;1.00;;
4355;SDS011;64374;51.482;7.408;2022-10-16T09:28:37;1.67;;;1.00;;
4355;SDS011;64374;51.482;7.408;2022-10-16T09:31:22;1.60;;;1.30;;
4355;SDS011;64374;51.482;7.408;2022-10-16T09:33:52;1.37;;;0.90;;
4355;SDS011;64374;51.482;7.408;2022-10-16T09:36:25;3.40;;;1.00;;
4355;SDS011;64374;51.482;7.408;2022-10-16T09:39:02;4.47;;;1.23;;
4355;SDS011;64374;51.482;7.408;2022-10-16T09:41:34;5.03;;;1.20;;
4355;SDS011;64374;51.482;7.408;2022-10-16T09:44:03;5.13;;;1.00;;
4355;SDS011;64374;51.482;7.408;2022-10-16T09:46:34;1.40;;;1.03;;
4355;SDS011;64374;51.482;7.408;2022-10-16T09:49:04;2.60;;;1.00;;
4355;SDS011;64374;51.482;7.408;2022-10-16T09:51:48;1.30;;;0.77;;
4355;SDS011;64374;51.482;7.408;2022-10-16T09:54:17;1.93;;;1.00;;
4355;SDS011;64374;51.482;7.408;2022-10-16T09:56:47;2.37;;;0.87;;
4355;SDS011;64374;51.482;7.408;2022-10-16T09:59:19;8.73;;;1.40;;
4355;SDS011;64374;51.482;7.408;2022-10-16T10:01:55;2.93;;;0.90;;
4355;SDS011;64374;51.482;7.408;2022-10-16T10:04:37;1.10;;;0.90;;
4355;SDS011;64374;51.482;7.408;2022-10-16T10:07:14;2.00;;;1.00;;
4355;SDS011;64374;51.482;7.408;2022-10-16T10:09:45;3.27;;;0.90;;
4355;SDS011;64374;51.482;7.408;2022-10-16T10:12:20;2.67;;;1.13;;
4355;SDS011;64374;51.482;7.408;2022-10-16T10:14:53;1.27;;;1.10;;
4355;SDS011;64374;51.482;7.408;2022-10-16T10:17:24;2.53;;;1.23;;
4355;SDS011;64374;51.482;7.408;2022-10-16T10:19:53;1.50;;;1.00;;
4355;SDS011;64374;51.482;7.408;2022-10-16T10:22:28;2.97;;;0.87;;
4355;SDS011;64374;51.482;7.408;2022-10-16T10:27:58;6.83;;;1.43;;
4355;SDS011;64374;51.482;7.408;2022-10-16T10:30:52;5.60;;;1.10;;
4355;SDS011;64374;51.482;7.408;2022-10-16T10:33:28;0.87;;;0.80;;
4355;SDS011;64374;51.482;7.408;2022-10-16T10:36:22;2.00;;;1.13;;
4355;SDS011;64374;51.482;7.408;2022-10-16T10:39:03;2.70;;;1.30;;
4355;SDS011;64374;51.482;7.408;2022-10-16T10:41:41;2.20;;;0.90;;
4355;SDS011;64374;51.482;7.408;2022-10-16T10:44:37;2.90;;;1.20;;
4355;SDS011;64374;51.482;7.408;2022-10-16T10:47:36;2.47;;;1.13;;
4355;SDS011;64374;51.482;7.408;2022-10-16T10:50:13;1.90;;;0.90;;
4355;SDS011;64374;51.482;7.408;2022-10-16T10:53:00;4.00;;;1.10;;
4355;SDS011;64374;51.482;7.408;2022-10-16T10:55:47;3.53;;;1.27;;
4355;SDS011;64374;51.482;7.408;2022-10-16T11:01:24;2.70;;;1.07;;
4355;SDS011;64374;51.482;7.408;2022-10-16T11:04:15;2.77;;;1.20;;
4355;SDS011;64374;51.482;7.408;2022-10-16T11:07:02;1.27;;;0.97;;
4355;SDS011;64374;51.482;7.408;2022-10-16T11:09:36;1.20;;;0.90;;
4355;SDS011;64374;51.482;7.408;2022-10-16T11:12:16;1.80;;;0.80;;
4355;SDS011;64374;51.482;7.408;2022-10-16T11:14:50;1.10;;;0.90;;
4355;SDS011;64374;51.482;7.408;2022-10-16T11:17:41;4.53;;;1.60;;
4355;SDS011;64374;51.482;7.408;2022-10-16T11:20:13;1.93;;;1.33;;
4355;SDS011;64374;51.482;7.408;2022-10-16T11:22:46;3.00;;;1.20;;
4355;SDS011;64374;51.482;7.408;2022-10-16T11:25:18;2.30;;;1.20;;
4355;SDS011;64374;51.482;7.408;2022-10-16T11:27:51;3.73;;;2.10;;
4355;SDS011;64374;51.482;7.408;2022-10-16T11:30:25;1.60;;;1.50;;
4355;SDS011;64374;51.482;7.408;2022-10-16T11:33:03;1.70;;;1.60;;
4355;SDS011;64374;51.482;7.408;2022-10-16T11:35:42;4.47;;;1.10;;
4355;SDS011;64374;51.482;7.408;2022-10-16T11:38:16;3.57;;;1.20;;
4355;SDS011;64374;51.482;7.408;2022-10-16T11:40:51;2.07;;;1.37;;
4355;SDS011;64374;51.482;7.408;2022-10-16T11:43:27;1.73;;;1.17;;
4355;SDS011;64374;51.482;7.408;2022-10-16T11:46:02;1.23;;;0.90;;
4355;SDS011;64374;51.482;7.408;2022-10-16T11:48:36;2.07;;;1.00;;
4355;SDS011;64374;51.482;7.408;2022-10-16T11:51:16;1.97;;;1.10;;
4355;SDS011;64374;51.482;7.408;2022-10-16T11:53:51;3.17;;;1.23;;
4355;SDS011;64374;51.482;7.408;2022-10-16T11:56:24;1.40;;;0.87;;
4355;SDS011;64374;51.482;7.408;2022-10-16T11:58:55;1.50;;;0.80;;
4355;SDS011;64374;51.482;7.408;2022-10-16T12:01:28;2.60;;;1.07;;
4355;SDS011;64374;51.482;7.408;2022-10-16T12:04:06;1.27;;;1.00;;
4355;SDS011;64374;51.482;7.408;2022-10-16T12:06:44;2.50;;;1.00;;
4355;SDS011;64374;51.482;7.408;2022-10-16T12:09:19;3.07;;;1.10;;
4355;SDS011;64374;51.482;7.408;2022-10-16T12:11:50;3.47;;;1.20;;
4355;SDS011;64374;51.482;7.408;2022-10-16T12:14:21;4.93;;;1.27;;
4355;SDS011;64374;51.482;7.408;2022-10-16T12:17:25;1.23;;;0.93;;
4355;SDS011;64374;51.482;7.408;2022-10-16T12:20:12;2.90;;;1.10;;
4355;SDS011;64374;51.482;7.408;2022-10-16T12:22:48;1.53;;;0.83;;
4355;SDS011;64374;51.482;7.408;2022-10-16T12:25:23;6.53;;;1.17;;
4355;SDS011;64374;51.482;7.408;2022-10-16T12:28:02;5.90;;;1.10;;
4355;SDS011;64374;51.482;7.408;2022-10-16T12:30:36;1.40;;;0.90;;
4355;SDS011;64374;51.482;7.408;2022-10-16T12:33:05;3.70;;;1.10;;
4355;SDS011;64374;51.482;7.408;2022-10-16T12:35:48;2.87;;;0.80;;
4355;SDS011;64374;51.482;7.408;2022-10-16T12:38:19;2.50;;;1.30;;
4355;SDS011;64374;51.482;7.408;2022-10-16T12:40:56;4.67;;;1.10;;
4355;SDS011;64374;51.482;7.408;2022-10-16T12:43:28;3.50;;;1.20;;
4355;SDS011;64374;51.482;7.408;2022-10-16T12:46:20;1.87;;;0.90;;
4355;SDS011;64374;51.482;7.408;2022-10-16T12:48:51;1.90;;;1.07;;
4355;SDS011;64374;51.482;7.408;2022-10-16T12:51:34;2.97;;;1.20;;
4355;SDS011;64374;51.482;7.408;2022-10-16T12:54:04;1.40;;;0.93;;
4355;SDS011;64374;51.482;7.408;2022-10-16T12:56:41;1.90;;;1.10;;
4355;SDS011;64374;51.482;7.408;2022-10-16T12:59:19;1.53;;;1.27;;
4355;SDS011;64374;51.482;7.408;2022-10-16T13:02:04;2.10;;;0.93;;
4355;SDS011;64374;51.482;7.408;2022-10-16T13:04:50;2.50;;;1.30;;
4355;SDS011;64374;51.482;7.408;2022-10-16T13:07:44;2.97;;;1.10;;
4355;SDS011;64374;51.482;7.408;2022-10-16T13:10:23;1.57;;;1.10;;
4355;SDS011;64374;51.482;7.408;2022-10-16T13:15:52;2.10;;;0.93;;
4355;SDS011;64374;51.482;7.408;2022-10-16T13:18:36;2.97;;;1.10;;
4355;SDS011;64374;51.482;7.408;2022-10-16T13:21:18;3.10;;;1.10;;
4355;SDS011;64374;51.482;7.408;2022-10-16T13:23:57;4.50;;;1.47;;
4355;SDS011;64374;51.482;7.408;2022-10-16T13:26:38;1.93;;;1.00;;
4355;SDS011;64374;51.482;7.408;2022-10-16T13:29:12;1.30;;;1.03;;
4355;SDS011;64374;51.482;7.408;2022-10-16T13:31:42;1.40;;;1.10;;
4355;SDS011;64374;51.482;7.408;2022-10-16T13:34:15;1.00;;;1.00;;
4355;SDS011;64374;51.482;7.408;2022-10-16T13:36:46;2.20;;;1.40;;
4355;SDS011;64374;51.482;7.408;2022-10-16T13:39:20;1.03;;;1.00;;
4355;SDS011;64374;51.482;7.408;2022-10-16T13:41:58;2.30;;;0.93;;
4355;SDS011;64374;51.482;7.408;2022-10-16T13:44:36;2.30;;;1.03;;
4355;SDS011;64374;51.482;7.408;2022-10-16T13:47:14;2.00;;;0.90;;
4355;SDS011;64374;51.482;7.408;2022-10-16T13:54:14;0.70;;;0.70;;
4355;SDS011;64374;51.482;7.408;2022-10-16T13:56:42;4.10;;;1.30;;
4355;SDS011;64374;51.482;7.408;2022-10-16T13:59:22;0.97;;;0.90;;
4355;SDS011;64374;51.482;7.408;2022-10-16T14:01:51;1.70;;;1.60;;
4355;SDS011;64374;51.482;7.408;2022-10-16T14:07:18;1.03;;;0.93;;
4355;SDS011;64374;51.482;7.408;2022-10-16T14:09:52;1.27;;;0.90;;
4355;SDS011;64374;51.482;7.408;2022-10-16T14:12:22;0.97;;;0.90;;
4355;SDS011;64374;51.482;7.408;2022-10-16T14:14:54;3.13;;;0.90;;
4355;SDS011;64374;51.482;7.408;2022-10-16T14:17:25;2.40;;;1.03;;
4355;SDS011;64374;51.482;7.408;2022-10-16T14:19:55;1.27;;;0.87;;
4355;SDS011;64374;51.482;7.408;2022-10-16T14:22:30;1.23;;;1.10;;
4355;SDS011;64374;51.482;7.408;2022-10-16T14:25:13;2.93;;;1.30;;
4355;SDS011;64374;51.482;7.408;2022-10-16T14:27:56;1.83;;;1.20;;
4355;SDS011;64374;51.482;7.408;2022-10-16T14:30:32;2.30;;;1.20;;
4355;SDS011;64374;51.482;7.408;2022-10-16T14:33:03;1.80;;;1.07;;
4355;SDS011;64374;51.482;7.408;2022-10-16T14:35:34;3.17;;;0.93;;
4355;SDS011;64374;51.482;7.408;2022-10-16T14:38:04;1.37;;;1.03;;
4355;SDS011;64374;51.482;7.408;2022-10-16T14:40:37;2.53;;;1.10;;
4355;SDS011;64374;51.482;7.408;2022-10-16T14:43:06;1.87;;;1.43;;
4355;SDS011;64374;51.482;7.408;2022-10-16T14:45:34;1.57;;;0.80;;
4355;SDS011;64374;51.482;7.408;2022-10-16T14:48:04;2.60;;;1.30;;
4355;SDS011;64374;51.482;7.408;2022-10-16T14:50:45;5.53;;;1.07;;
4355;SDS011;64374;51.482;7.408;2022-10-16T14:53:13;1.77;;;1.07;;
4355;SDS011;64374;51.482;7.408;2022-10-16T14:55:43;5.90;;;1.20;;
4355;SDS011;64374;51.482;7.408;2022-10-16T14:58:13;1.77;;;1.13;;
4355;SDS011;64374;51.482;7.408;2022-10-16T15:00:44;1.20;;;1.10;;
4355;SDS011;64374;51.482;7.408;2022-10-16T15:03:12;2.53;;;1.23;;
4355;SDS011;64374;51.482;7.408;2022-10-16T15:05:41;4.10;;;1.20;;
4355;SDS011;64374;51.482;7.408;2022-10-16T15:08:09;2.20;;;0.90;;
4355;SDS011;64374;51.482;7.408;2022-10-16T15:10:39;1.47;;;1.00;;
4355;SDS011;64374;51.482;7.408;2022-10-16T15:13:15;2.40;;;1.00;;
4355;SDS011;64374;51.482;7.408;2022-10-16T15:15:46;4.80;;;1.23;;
4355;SDS011;64374;51.482;7.408;2022-10-16T15:18:17;1.47;;;1.00;;
4355;SDS011;64374;51.482;7.408;2022-10-16T15:20:47;2.63;;;1.13;;
4355;SDS011;64374;51.482;7.408;2022-10-16T15:23:17;2.13;;;1.10;;
4355;SDS011;64374;51.482;7.408;2022-10-16T15:25:50;2.60;;;1.20;;
4355;SDS011;64374;51.482;7.408;2022-10-16T15:28:21;2.50;;;1.20;;
4355;SDS011;64374;51.482;7.408;2022-10-16T15:30:51;1.63;;;1.53;;
4355;SDS011;64374;51.482;7.408;2022-10-16T15:33:21;4.50;;;1.63;;
4355;SDS011;64374;51.482;7.408;2022-10-16T15:35:54;1.90;;;1.67;;
4355;SDS011;64374;51.482;7.408;2022-10-16T15:38:24;2.63;;;1.90;;
4355;SDS011;64374;51.482;7.408;2022-10-16T15:40:53;7.37;;;2.60;;
4355;SDS011;64374;51.482;7.408;2022-10-16T15:43:23;4.00;;;1.90;;
4355;SDS011;64374;51.482;7.408;2022-10-16T15:45:58;5.33;;;2.43;;
4355;SDS011;64374;51.482;7.408;2022-10-16T15:48:28;5.20;;;2.73;;
4355;SDS011;64374;51.482;7.408;2022-10-16T15:50:58;6.37;;;5.13;;
4355;SDS011;64374;51.482;7.408;2022-10-16T15:53:27;6.73;;;5.03;;
4355;SDS011;64374;51.482;7.408;2022-10-16T15:55:56;5.80;;;5.03;;
4355;SDS011;64374;51.482;7.408;2022-10-16T15:58:26;9.80;;;5.80;;
4355;SDS011;64374;51.482;7.408;2022-10-16T16:00:56;12.10;;;6.53;;